Wetterstation Vordersexau
Wetterdaten: Woche 06.10.14 - 12.10.14 (KW41)
Datum Zeit Temp. A. Feuchte A. Luftdruck Regen Wind Richtung Taupunkt Windchill Windben
06.10.2014 00:00 12,8 C 85 % 985,4 hPa 0,0 l/m 0,0 km/h S-SW 10,3 C 12,8 C 0,0 km/h
06.10.2014 01:00 12,3 C 85 % 985,0 hPa 0,0 l/m 0,0 km/h S-SW 9,9 C 12,3 C 0,0 km/h
06.10.2014 02:00 10,9 C 85 % 984,7 hPa 0,0 l/m 0,0 km/h S-SW 8,5 C 10,9 C 0,0 km/h
06.10.2014 03:00 9,6 C 85 % 984,7 hPa 0,0 l/m 0,0 km/h S-SW 7,2 C 9,6 C 0,0 km/h
06.10.2014 04:00 9,3 C 85 % 984,3 hPa 0,0 l/m 0,0 km/h S-SW 6,9 C 9,3 C 0,0 km/h
06.10.2014 05:00 9,1 C 84 % 984,5 hPa 0,0 l/m 0,0 km/h S-SW 6,5 C 9,1 C 0,0 km/h
06.10.2014 06:00 8,5 C 84 % 984,3 hPa 0,0 l/m 0,0 km/h S-SW 6,0 C 8,5 C 0,0 km/h
06.10.2014 07:00 9,6 C 83 % 984,4 hPa 0,0 l/m 0,0 km/h S-SW 6,9 C 9,6 C 0,0 km/h
06.10.2014 08:00 9,8 C 82 % 984,1 hPa 0,0 l/m 0,0 km/h NW 6,9 C 9,8 C 0,0 km/h
06.10.2014 09:00 12,4 C 81 % 984,8 hPa 0,0 l/m 0,0 km/h NW 9,2 C 12,4 C 0,0 km/h
06.10.2014 10:00 14,6 C 83 % 984,3 hPa 0,0 l/m 0,0 km/h W-NW 11,7 C 14,6 C 0,0 km/h
06.10.2014 11:00 23,3 C 66 % 983,4 hPa 0,0 l/m 0,0 km/h W-NW 16,6 C 23,3 C 0,0 km/h
06.10.2014 12:00 19,0 C 70 % 983,1 hPa 0,0 l/m 1,9 km/h W 13,4 C 19,0 C 1,1 km/h
06.10.2014 13:00 19,6 C 71 % 982,4 hPa 0,0 l/m 0,0 km/h W-SW 14,2 C 19,6 C 0,0 km/h
06.10.2014 14:00 23,1 C 62 % 981,7 hPa 0,0 l/m 0,0 km/h SW 15,4 C 23,1 C 0,0 km/h
06.10.2014 15:00 26,3 C 54 % 981,1 hPa 0,0 l/m 0,0 km/h N 16,2 C 26,3 C 0,0 km/h
06.10.2014 16:00 27,4 C 48 % 980,7 hPa 0,0 l/m 0,0 km/h W-SW 15,4 C 27,4 C 0,0 km/h
06.10.2014 17:00 26,7 C 48 % 980,3 hPa 0,0 l/m 0,0 km/h W 14,8 C 26,7 C 0,0 km/h
06.10.2014 18:00 15,4 C 70 % 980,2 hPa 0,0 l/m 0,0 km/h W 10,0 C 15,4 C 0,0 km/h
06.10.2014 19:00 12,2 C 80 % 980,6 hPa 0,0 l/m 0,0 km/h W-SW 8,9 C 12,2 C 0,0 km/h
06.10.2014 20:00 11,4 C 83 % 981,0 hPa 0,0 l/m 0,0 km/h S-SO 8,6 C 11,4 C 0,0 km/h
06.10.2014 21:00 11,6 C 85 % 981,0 hPa 0,0 l/m 0,0 km/h O-NO 9,2 C 11,6 C 0,0 km/h
06.10.2014 22:00 11,8 C 85 % 980,4 hPa 0,0 l/m 0,0 km/h N-NO 9,4 C 11,8 C 0,0 km/h
06.10.2014 23:00 11,8 C 85 % 980,2 hPa 0,0 l/m 1,8 km/h O-SO 9,4 C 11,8 C 1,8 km/h
07.10.2014 00:00 12,4 C 86 % 979,6 hPa 0,0 l/m 0,0 km/h O-SO 10,1 C 12,4 C 0,0 km/h
07.10.2014 01:00 12,5 C 86 % 979,6 hPa 0,0 l/m 0,0 km/h SO 10,2 C 12,5 C 0,0 km/h
07.10.2014 02:00 12,9 C 85 % 979,5 hPa 0,0 l/m 0,0 km/h SO 10,4 C 12,9 C 0,0 km/h
07.10.2014 03:00 12,6 C 85 % 979,8 hPa 0,2 l/m 0,0 km/h SO 10,1 C 12,6 C 0,0 km/h
07.10.2014 04:00 13,6 C 85 % 979,2 hPa 0,2 l/m 7,9 km/h O-SO 11,1 C 12,7 C 7,9 km/h
07.10.2014 05:00 15,3 C 80 % 977,8 hPa 0,0 l/m 20,1 km/h S-SO 11,9 C 10,1 C 11,2 km/h
07.10.2014 06:00 16,3 C 72 % 977,5 hPa 0,0 l/m 16,8 km/h S-SO 11,2 C 12,2 C 9,4 km/h
07.10.2014 07:00 16,1 C 73 % 977,4 hPa 0,0 l/m 0,0 km/h S-SW 11,3 C 16,1 C 0,0 km/h
07.10.2014 08:00 17,3 C 72 % 977,6 hPa 0,0 l/m 28,5 km/h W-SW 12,2 C 11,1 C 15,8 km/h
07.10.2014 09:00 18,6 C 66 % 978,3 hPa 0,0 l/m 28,5 km/h SW 12,1 C 13,0 C 15,8 km/h
07.10.2014 10:00 17,8 C 70 % 978,5 hPa 0,0 l/m 14,9 km/h W-NW 12,3 C 14,6 C 8,3 km/h
07.10.2014 11:00 17,2 C 75 % 979,1 hPa 0,0 l/m 20,7 km/h SW 12,7 C 12,4 C 11,5 km/h
07.10.2014 12:00 15,2 C 84 % 980,7 hPa 0,2 l/m 15,6 km/h S-SW 12,5 C 11,2 C 8,6 km/h
07.10.2014 13:00 14,1 C 81 % 980,8 hPa 0,2 l/m 1,9 km/h S-SW 10,9 C 14,1 C 1,1 km/h
07.10.2014 14:00 13,4 C 84 % 981,1 hPa 0,2 l/m 4,5 km/h S 10,8 C 13,4 C 2,5 km/h
07.10.2014 15:00 13,8 C 84 % 981,2 hPa 0,0 l/m 0,0 km/h S 11,1 C 13,8 C 0,0 km/h
07.10.2014 16:00 14,2 C 83 % 981,0 hPa 0,0 l/m 16,2 km/h S-SO 11,4 C 9,8 C 9,0 km/h
07.10.2014 17:00 14,9 C 80 % 980,3 hPa 0,0 l/m 1,9 km/h SO 11,5 C 14,9 C 1,1 km/h
07.10.2014 18:00 13,4 C 85 % 981,0 hPa 0,8 l/m 3,9 km/h S-SW 10,9 C 13,4 C 2,2 km/h
07.10.2014 19:00 13,9 C 85 % 981,1 hPa 0,6 l/m 5,2 km/h S-SO 11,4 C 13,9 C 2,9 km/h
07.10.2014 20:00 0,0 C 0 % 982,2 hPa 0,0 l/m 0,0 km/h SW -60,0 C 0,0 C 0,0 km/h
07.10.2014 21:00 14,9 C 85 % 982,8 hPa 0,0 l/m 10,4 km/h S-SO 12,4 C 12,8 C 10,4 km/h
07.10.2014 22:00 15,5 C 83 % 982,9 hPa 0,0 l/m 7,9 km/h S 12,6 C 14,7 C 7,9 km/h
07.10.2014 23:00 15,5 C 78 % 983,7 hPa 0,0 l/m 11,9 km/h N-NO 11,7 C 12,9 C 11,9 km/h
08.10.2014 00:00 14,6 C 80 % 983,7 hPa 0,0 l/m 1,4 km/h N-NO 11,2 C 14,6 C 1,4 km/h
08.10.2014 01:00 13,1 C 85 % 983,9 hPa 0,0 l/m 0,0 km/h N-NO 10,6 C 13,1 C 0,0 km/h
08.10.2014 02:00 12,6 C 85 % 983,9 hPa 0,0 l/m 0,0 km/h NO 10,1 C 12,6 C 0,0 km/h
08.10.2014 03:00 12,7 C 86 % 983,3 hPa 0,0 l/m 0,0 km/h N-NO 10,4 C 12,7 C 0,0 km/h
08.10.2014 04:00 12,3 C 86 % 982,3 hPa 0,0 l/m 0,0 km/h O 10,0 C 12,3 C 0,0 km/h
08.10.2014 05:00 12,6 C 86 % 981,9 hPa 0,0 l/m 0,0 km/h N-NO 10,3 C 12,6 C 0,0 km/h
08.10.2014 06:00 13,0 C 86 % 981,5 hPa 0,0 l/m 0,0 km/h NW 10,7 C 13,0 C 0,0 km/h
08.10.2014 07:00 12,6 C 86 % 981,7 hPa 0,0 l/m 0,0 km/h N-NW 10,3 C 12,6 C 0,0 km/h
08.10.2014 08:00 12,8 C 86 % 981,6 hPa 0,2 l/m 0,0 km/h N-NO 10,5 C 12,8 C 0,0 km/h
08.10.2014 09:00 15,5 C 85 % 981,5 hPa 0,0 l/m 0,0 km/h N-NO 13,0 C 15,5 C 0,0 km/h
08.10.2014 10:00 18,9 C 82 % 980,9 hPa 0,0 l/m 0,0 km/h N-NW 15,8 C 18,9 C 0,0 km/h
08.10.2014 11:00 20,2 C 77 % 980,9 hPa 0,0 l/m 0,0 km/h W 16,0 C 20,2 C 0,0 km/h
08.10.2014 12:00 21,9 C 73 % 980,2 hPa 0,0 l/m 0,0 km/h NW 16,8 C 21,9 C 0,0 km/h
08.10.2014 13:00 20,0 C 76 % 979,9 hPa 0,0 l/m 0,0 km/h N-NO 15,6 C 20,0 C 0,0 km/h
08.10.2014 14:00 21,6 C 75 % 979,2 hPa 0,2 l/m 7,8 km/h N-NO 17,0 C 21,1 C 4,3 km/h
08.10.2014 15:00 23,4 C 71 % 979,0 hPa 0,0 l/m 0,0 km/h N-NO 17,8 C 23,4 C 0,0 km/h
08.10.2014 16:00 26,1 C 58 % 978,7 hPa 0,0 l/m 0,0 km/h S-SW 17,2 C 26,1 C 0,0 km/h
08.10.2014 17:00 25,9 C 58 % 978,7 hPa 0,0 l/m 0,0 km/h N-NO 17,0 C 25,9 C 0,0 km/h
08.10.2014 18:00 18,8 C 76 % 978,8 hPa 0,0 l/m 0,0 km/h O-SO 14,5 C 18,8 C 0,0 km/h
08.10.2014 19:00 16,7 C 81 % 978,7 hPa 0,0 l/m 0,0 km/h N-NW 13,4 C 16,7 C 0,0 km/h
08.10.2014 20:00 16,5 C 83 % 978,5 hPa 0,0 l/m 0,0 km/h SO 13,6 C 16,5 C 0,0 km/h
08.10.2014 21:00 16,4 C 83 % 978,4 hPa 0,0 l/m 0,0 km/h SO 13,5 C 16,4 C 0,0 km/h
08.10.2014 22:00 15,8 C 84 % 978,4 hPa 0,0 l/m 0,0 km/h SO 13,1 C 15,8 C 0,0 km/h
08.10.2014 23:00 16,2 C 82 % 978,3 hPa 0,0 l/m 2,9 km/h N-NO 13,1 C 16,2 C 2,9 km/h
09.10.2014 00:00 14,8 C 83 % 978,3 hPa 0,0 l/m 0,0 km/h N-NO 11,9 C 14,8 C 0,0 km/h
09.10.2014 01:00 14,2 C 84 % 978,7 hPa 0,0 l/m 0,0 km/h SO 11,5 C 14,2 C 0,0 km/h
09.10.2014 02:00 13,4 C 85 % 979,0 hPa 0,0 l/m 1,1 km/h O-SO 10,9 C 13,4 C 1,1 km/h
09.10.2014 03:00 13,4 C 85 % 978,8 hPa 0,0 l/m 0,0 km/h O-NO 10,9 C 13,4 C 0,0 km/h
09.10.2014 04:00 12,9 C 85 % 979,0 hPa 0,0 l/m 0,0 km/h O-SO 10,4 C 12,9 C 0,0 km/h
09.10.2014 05:00 12,2 C 85 % 979,0 hPa 0,0 l/m 0,0 km/h SO 9,8 C 12,2 C 0,0 km/h
09.10.2014 06:00 11,8 C 86 % 979,2 hPa 0,0 l/m 0,0 km/h SO 9,5 C 11,8 C 0,0 km/h
09.10.2014 07:00 11,9 C 85 % 979,1 hPa 0,0 l/m 0,0 km/h O-NO 9,5 C 11,9 C 0,0 km/h
09.10.2014 08:00 14,8 C 85 % 979,4 hPa 0,0 l/m 0,0 km/h SO 12,3 C 14,8 C 0,0 km/h
09.10.2014 09:00 20,4 C 74 % 979,6 hPa 0,0 l/m 0,0 km/h SO 15,6 C 20,4 C 0,0 km/h
09.10.2014 10:00 26,4 C 59 % 979,7 hPa 0,0 l/m 0,0 km/h SO 17,7 C 26,4 C 0,0 km/h
09.10.2014 11:00 25,3 C 60 % 980,0 hPa 0,0 l/m 0,0 km/h W 17,0 C 25,3 C 0,0 km/h
09.10.2014 12:00 31,8 C 44 % 979,5 hPa 0,0 l/m 0,0 km/h NW 18,0 C 31,8 C 0,0 km/h
09.10.2014 13:00 27,6 C 47 % 979,4 hPa 0,0 l/m 0,0 km/h W-NW 15,3 C 27,6 C 0,0 km/h
09.10.2014 14:00 25,8 C 52 % 979,7 hPa 0,0 l/m 0,0 km/h SO 15,2 C 25,8 C 0,0 km/h
09.10.2014 15:00 22,4 C 65 % 980,3 hPa 0,0 l/m 0,0 km/h W 15,5 C 22,4 C 0,0 km/h
09.10.2014 16:00 21,9 C 63 % 981,0 hPa 0,0 l/m 0,0 km/h SW 14,5 C 21,9 C 0,0 km/h
09.10.2014 17:00 20,4 C 65 % 981,8 hPa 0,0 l/m 22,0 km/h SW 13,6 C 16,4 C 12,2 km/h
09.10.2014 18:00 17,9 C 76 % 982,3 hPa 0,0 l/m 0,0 km/h SO 13,6 C 17,9 C 0,0 km/h
09.10.2014 19:00 15,8 C 83 % 983,5 hPa 0,6 l/m 5,8 km/h SO 12,9 C 15,8 C 3,2 km/h
09.10.2014 20:00 15,3 C 84 % 983,4 hPa 0,4 l/m 0,0 km/h N-NO 12,6 C 15,3 C 0,0 km/h
09.10.2014 21:00 15,4 C 84 % 983,7 hPa 0,2 l/m 0,0 km/h SO 12,7 C 15,4 C 0,0 km/h
09.10.2014 22:00 15,2 C 84 % 984,3 hPa 0,0 l/m 0,0 km/h S 12,5 C 15,2 C 0,0 km/h
09.10.2014 23:00 15,9 C 85 % 984,3 hPa 0,0 l/m 0,0 km/h O-NO 13,4 C 15,9 C 0,0 km/h
10.10.2014 00:00 14,9 C 85 % 984,4 hPa 0,0 l/m 0,0 km/h O-NO 12,4 C 14,9 C 0,0 km/h
10.10.2014 01:00 14,8 C 84 % 984,3 hPa 0,0 l/m 0,0 km/h O-SO 12,1 C 14,8 C 0,0 km/h
10.10.2014 02:00 14,8 C 84 % 984,3 hPa 0,0 l/m 0,0 km/h O-SO 12,1 C 14,8 C 0,0 km/h
10.10.2014 03:00 14,9 C 83 % 984,6 hPa 0,0 l/m 0,0 km/h O-SO 12,0 C 14,9 C 0,0 km/h
10.10.2014 04:00 14,8 C 83 % 985,0 hPa 0,0 l/m 0,0 km/h O-SO 11,9 C 14,8 C 0,0 km/h
10.10.2014 05:00 14,9 C 83 % 986,1 hPa 0,2 l/m 0,0 km/h O-SO 12,0 C 14,9 C 0,0 km/h
10.10.2014 06:00 14,8 C 83 % 985,7 hPa 0,0 l/m 0,0 km/h O-SO 11,9 C 14,8 C 0,0 km/h
10.10.2014 07:00 14,5 C 82 % 985,4 hPa 0,0 l/m 0,0 km/h O-NO 11,5 C 14,5 C 0,0 km/h
10.10.2014 08:00 14,9 C 81 % 986,0 hPa 0,0 l/m 0,0 km/h N-NO 11,7 C 14,9 C 0,0 km/h
10.10.2014 09:00 15,6 C 80 % 987,0 hPa 0,2 l/m 0,0 km/h N-NO 12,2 C 15,6 C 0,0 km/h
10.10.2014 10:00 16,4 C 81 % 987,0 hPa 0,0 l/m 0,6 km/h N-NW 13,1 C 16,4 C 0,4 km/h
10.10.2014 11:00 16,9 C 82 % 986,9 hPa 0,0 l/m 0,0 km/h N-NO 13,8 C 16,9 C 0,0 km/h
10.10.2014 12:00 18,1 C 85 % 986,6 hPa 0,0 l/m 0,0 km/h W-NW 15,5 C 18,1 C 0,0 km/h
10.10.2014 13:00 18,2 C 85 % 986,5 hPa 0,0 l/m 0,0 km/h W 15,6 C 18,2 C 0,0 km/h
10.10.2014 14:00 18,4 C 83 % 986,6 hPa 0,0 l/m 0,0 km/h W-NW 15,5 C 18,4 C 0,0 km/h
10.10.2014 15:00 18,1 C 84 % 986,5 hPa 0,0 l/m 0,0 km/h W-NW 15,4 C 18,1 C 0,0 km/h
10.10.2014 16:00 18,3 C 83 % 985,4 hPa 0,0 l/m 0,0 km/h N-NO 15,4 C 18,3 C 0,0 km/h
10.10.2014 17:00 17,4 C 83 % 985,4 hPa 0,0 l/m 0,0 km/h N-NO 14,5 C 17,4 C 0,0 km/h
10.10.2014 18:00 16,1 C 84 % 985,0 hPa 0,0 l/m 0,0 km/h N-NO 13,4 C 16,1 C 0,0 km/h
10.10.2014 19:00 14,9 C 85 % 985,5 hPa 0,0 l/m 0,0 km/h N-NO 12,4 C 14,9 C 0,0 km/h
10.10.2014 20:00 14,8 C 85 % 985,2 hPa 0,0 l/m 0,0 km/h N-NO 12,3 C 14,8 C 0,0 km/h
10.10.2014 21:00 14,6 C 85 % 984,5 hPa 0,0 l/m 0,0 km/h N-NW 12,1 C 14,6 C 0,0 km/h
10.10.2014 22:00 14,8 C 84 % 984,2 hPa 0,0 l/m 0,0 km/h W 12,1 C 14,8 C 0,0 km/h
10.10.2014 23:00 14,6 C 82 % 984,2 hPa 0,0 l/m 0,0 km/h NW 11,6 C 14,6 C 0,0 km/h
11.10.2014 00:00 14,6 C 81 % 984,3 hPa 0,0 l/m 0,0 km/h O-SO 11,4 C 14,6 C 0,0 km/h
11.10.2014 01:00 14,5 C 79 % 984,9 hPa 0,0 l/m 0,0 km/h N-NO 10,9 C 14,5 C 0,0 km/h
11.10.2014 02:00 14,4 C 79 % 984,3 hPa 0,2 l/m 0,0 km/h W-SW 10,8 C 14,4 C 0,0 km/h
11.10.2014 03:00 14,1 C 78 % 985,2 hPa 0,0 l/m 0,0 km/h O-SO 10,3 C 14,1 C 0,0 km/h
11.10.2014 04:00 14,1 C 78 % 984,5 hPa 0,2 l/m 0,0 km/h SO 10,3 C 14,1 C 0,0 km/h
11.10.2014 05:00 14,1 C 76 % 984,0 hPa 0,0 l/m 0,0 km/h SO 9,9 C 14,1 C 0,0 km/h
11.10.2014 06:00 13,8 C 76 % 984,2 hPa 0,2 l/m 0,0 km/h S-SO 9,6 C 13,8 C 0,0 km/h
11.10.2014 07:00 13,6 C 76 % 984,6 hPa 0,0 l/m 0,0 km/h S-SO 9,4 C 13,6 C 0,0 km/h
11.10.2014 08:00 13,9 C 76 % 984,8 hPa 0,0 l/m 0,0 km/h S-SO 9,7 C 13,9 C 0,0 km/h
11.10.2014 09:00 14,7 C 75 % 984,9 hPa 0,0 l/m 0,0 km/h N-NO 10,3 C 14,7 C 0,0 km/h
11.10.2014 10:00 16,1 C 75 % 985,2 hPa 0,0 l/m 0,0 km/h N-NO 11,7 C 16,1 C 0,0 km/h
11.10.2014 11:00 17,0 C 78 % 985,2 hPa 0,0 l/m 0,0 km/h S-SW 13,1 C 17,0 C 0,0 km/h
11.10.2014 12:00 18,4 C 85 % 985,1 hPa 0,0 l/m 1,9 km/h N-NW 15,8 C 18,4 C 1,1 km/h
11.10.2014 13:00 20,1 C 80 % 985,2 hPa 0,0 l/m 8,4 km/h W-NW 16,5 C 19,3 C 4,7 km/h
11.10.2014 14:00 20,1 C 77 % 985,3 hPa 0,0 l/m 10,4 km/h W 15,9 C 18,6 C 5,8 km/h
11.10.2014 15:00 18,9 C 78 % 985,4 hPa 0,0 l/m 7,8 km/h W 15,0 C 18,3 C 4,3 km/h
11.10.2014 16:00 19,1 C 77 % 985,2 hPa 0,0 l/m 0,0 km/h SW 15,0 C 19,1 C 0,0 km/h
11.10.2014 17:00 17,8 C 81 % 985,7 hPa 0,0 l/m 0,0 km/h S-SO 14,5 C 17,8 C 0,0 km/h
11.10.2014 18:00 16,6 C 79 % 986,0 hPa 0,0 l/m 0,0 km/h S-SO 12,9 C 16,6 C 0,0 km/h
11.10.2014 19:00 15,2 C 84 % 986,4 hPa 0,0 l/m 0,0 km/h S-SO 12,5 C 15,2 C 0,0 km/h
11.10.2014 20:00 13,8 C 85 % 986,6 hPa 0,0 l/m 0,0 km/h S-SO 11,3 C 13,8 C 0,0 km/h
11.10.2014 21:00 12,9 C 85 % 987,0 hPa 0,0 l/m 0,0 km/h NO 10,4 C 12,9 C 0,0 km/h
11.10.2014 22:00 11,8 C 85 % 986,9 hPa 0,0 l/m 0,0 km/h NO 9,4 C 11,8 C 0,0 km/h
11.10.2014 23:00 11,3 C 85 % 986,8 hPa 0,0 l/m 0,0 km/h NO 8,9 C 11,3 C 0,0 km/h
12.10.2014 00:00 10,8 C 84 % 986,5 hPa 0,0 l/m 0,0 km/h NO 8,2 C 10,8 C 0,0 km/h
12.10.2014 01:00 10,2 C 84 % 986,8 hPa 0,0 l/m 0,0 km/h NO 7,6 C 10,2 C 0,0 km/h
12.10.2014 02:00 9,1 C 84 % 986,6 hPa 0,0 l/m 0,0 km/h NO 6,5 C 9,1 C 0,0 km/h
12.10.2014 03:00 8,6 C 84 % 986,3 hPa 0,0 l/m 0,0 km/h NO 6,1 C 8,6 C 0,0 km/h
12.10.2014 04:00 8,8 C 83 % 986,0 hPa 0,0 l/m 0,0 km/h NO 6,1 C 8,8 C 0,0 km/h
12.10.2014 05:00 8,4 C 83 % 985,6 hPa 0,0 l/m 0,0 km/h NO 5,7 C 8,4 C 0,0 km/h
12.10.2014 06:00 7,4 C 83 % 985,3 hPa 0,0 l/m 0,0 km/h NO 4,7 C 7,4 C 0,0 km/h
12.10.2014 07:00 8,3 C 81 % 985,3 hPa 0,0 l/m 0,0 km/h NO 5,2 C 8,3 C 0,0 km/h
12.10.2014 08:00 10,1 C 80 % 985,0 hPa 0,0 l/m 0,0 km/h NW 6,8 C 10,1 C 0,0 km/h
12.10.2014 09:00 11,0 C 79 % 985,0 hPa 0,0 l/m 0,0 km/h NW 7,5 C 11,0 C 0,0 km/h
12.10.2014 10:00 12,0 C 78 % 984,3 hPa 0,0 l/m 0,0 km/h W-SW 8,3 C 12,0 C 0,0 km/h
12.10.2014 11:00 12,4 C 78 % 984,3 hPa 0,0 l/m 1,3 km/h W-SW 8,7 C 12,4 C 0,7 km/h
12.10.2014 12:00 13,6 C 83 % 983,4 hPa 0,0 l/m 0,0 km/h O 10,8 C 13,6 C 0,0 km/h
12.10.2014 13:00 15,6 C 86 % 981,8 hPa 0,0 l/m 0,0 km/h W-NW 13,3 C 15,6 C 0,0 km/h
12.10.2014 14:00 15,8 C 82 % 981,3 hPa 0,0 l/m 0,0 km/h W-NW 12,7 C 15,8 C 0,0 km/h
12.10.2014 15:00 15,3 C 84 % 981,8 hPa 0,0 l/m 0,0 km/h W-NW 12,6 C 15,3 C 0,0 km/h
12.10.2014 16:00 14,3 C 85 % 981,4 hPa 0,0 l/m 0,0 km/h NO 11,8 C 14,3 C 0,0 km/h
12.10.2014 17:00 14,4 C 86 % 979,4 hPa 0,0 l/m 42,8 km/h W-NW 12,1 C 5,1 C 23,8 km/h
12.10.2014 18:00 14,1 C 86 % 980,3 hPa 0,0 l/m 0,0 km/h W-SW 11,8 C 14,1 C 0,0 km/h
12.10.2014 19:00 13,9 C 85 % 979,2 hPa 0,0 l/m 0,0 km/h S-SW 11,4 C 13,9 C 0,0 km/h
12.10.2014 20:00 13,5 C 84 % 979,8 hPa 0,0 l/m 0,0 km/h SW 10,8 C 13,5 C 0,0 km/h
12.10.2014 21:00 13,4 C 83 % 979,7 hPa 0,0 l/m 0,0 km/h S-SW 10,6 C 13,4 C 0,0 km/h
12.10.2014 22:00 12,2 C 84 % 979,7 hPa 0,0 l/m 0,0 km/h S-SW 9,6 C 12,2 C 0,0 km/h
12.10.2014 23:00 10,9 C 84 % 979,6 hPa 0,0 l/m 0,0 km/h S-SW 8,3 C 10,9 C 0,0 km/h
Min-Datum _ 07.10.14 07.10.14 07.10.14 - 06.10.14 - 07.10.14 07.10.14 06.10.14
_ Min-Zeit 20:53 20:53 07:53 - 00:53 - 20:53 20:53 00:53
Minimum _ 0,0 C 0 % 977,4 hPa - 0,0 km/h - -60,0 C 0,0 C 0,0 km/h
Max-Datum _ 09.10.14 07.10.14 10.10.14 07.10.14 12.10.14 - 09.10.14 09.10.14 12.10.14
_ Max-Zeit 12:53 00:53 09:53 18:53 17:53 - 12:53 12:53 17:53
Maximum _ 31,8 C 86 % 987,0 hPa 0,8 l/m 42,8 km/h
W-NW
- 18,0 C 31,8 C 23,8 km/h
W-NW
Durchschnitt _ 15,4 C 79 % 982,6 hPa #5,2 l/m 2,0 km/h N-NO 11,4 C 15,0 C 1,2 km/h
www.sexauwetter.de